Time;durP1;ratioP1;P1;durP2;ratioP2;P2;SDS_P1;SDS_P2;PMS_P1;PMS_P2;Temp;Humidity;BMP_temperature;BMP_pressure;BME280_temperature;BME280_humidity;BME280_pressure;Samples;Min_cycle;Max_cycle;Signal;HPM_P1;HPM_P2
2022/05/26 00:01:52;;;;;;;6.20;3.88;;;9.70;80.20;;;;;;5013092;28;20382;-79
2022/05/26 00:04:18;;;;;;;4.78;3.17;;;9.70;80.20;;;;;;5012486;28;20096;-79
2022/05/26 00:06:44;;;;;;;4.60;3.35;;;9.70;80.40;;;;;;4994752;28;20169;-78
2022/05/26 00:09:10;;;;;;;5.90;2.85;;;9.60;80.30;;;;;;4994767;28;20044;-80
2022/05/26 00:11:38;;;;;;;7.30;3.10;;;9.60;80.40;;;;;;5012234;28;20026;-78
2022/05/26 00:14:09;;;;;;;4.53;3.40;;;9.60;80.40;;;;;;4993153;28;20085;-78
2022/05/26 00:16:44;;;;;;;3.65;3.00;;;9.60;80.30;;;;;;4992769;28;20113;-79
2022/05/26 00:19:11;;;;;;;6.93;3.38;;;9.60;80.40;;;;;;4993004;28;20336;-79
2022/05/26 00:21:37;;;;;;;5.18;3.05;;;9.50;80.40;;;;;;4993103;28;20428;-78
2022/05/26 00:24:04;;;;;;;5.75;4.18;;;9.60;80.50;;;;;;4992780;28;20388;-78
2022/05/26 00:26:30;;;;;;;5.65;3.67;;;9.50;80.40;;;;;;4975192;28;20030;-77
2022/05/26 00:28:55;;;;;;;5.00;3.22;;;9.50;80.40;;;;;;4974772;28;20499;-79
2022/05/26 00:31:22;;;;;;;4.72;3.50;;;9.50;80.40;;;;;;4992516;28;20033;-78
2022/05/26 00:33:48;;;;;;;4.55;3.03;;;9.40;80.40;;;;;;4992129;28;20082;-79
2022/05/26 00:36:15;;;;;;;6.28;3.40;;;9.40;80.30;;;;;;4992506;28;20109;-80
2022/05/26 00:38:42;;;;;;;3.97;2.90;;;9.30;80.40;;;;;;4992794;28;20054;-79
2022/05/26 00:41:11;;;;;;;6.68;4.00;;;9.30;80.60;;;;;;5005651;28;20065;-78
2022/05/26 00:43:44;;;;;;;6.60;3.05;;;9.20;80.70;;;;;;4996585;28;20053;-78
2022/05/26 00:46:22;;;;;;;5.93;3.38;;;9.10;80.90;;;;;;4997592;28;20053;-78
2022/05/26 00:48:53;;;;;;;6.57;3.63;;;9.10;81.00;;;;;;4997125;28;20034;-79
2022/05/26 00:51:27;;;;;;;6.05;4.63;;;9.00;81.10;;;;;;4996041;28;20077;-79
2022/05/26 00:53:57;;;;;;;7.60;3.88;;;8.90;81.20;;;;;;4996224;28;20018;-78
2022/05/26 00:56:48;;;;;;;11.13;8.48;;;8.90;81.40;;;;;;4996433;28;20434;-78
2022/05/26 00:59:17;;;;;;;5.38;3.83;;;8.90;81.50;;;;;;4996268;28;20503;-78
2022/05/26 01:01:45;;;;;;;6.18;3.72;;;8.80;81.40;;;;;;4996760;28;20498;-80
2022/05/26 01:04:15;;;;;;;4.38;2.78;;;8.90;81.50;;;;;;4996440;28;20042;-79
2022/05/26 01:07:05;;;;;;;8.07;4.13;;;8.80;81.50;;;;;;4995851;28;20117;-78
2022/05/26 01:09:31;;;;;;;4.90;3.50;;;8.80;81.50;;;;;;4995668;28;20038;-80
2022/05/26 01:11:56;;;;;;;9.63;4.63;;;8.80;81.60;;;;;;4995916;28;20499;-80
2022/05/26 01:14:27;;;;;;;6.43;4.43;;;8.80;82.00;;;;;;4995718;28;20037;-80
2022/05/26 01:17:24;;;;;;;6.72;3.88;;;8.80;82.10;;;;;;4995788;28;20526;-80
2022/05/26 01:20:11;;;;;;;8.40;3.72;;;8.80;82.40;;;;;;4995598;28;20041;-78
2022/05/26 01:22:54;;;;;;;6.70;3.95;;;8.90;82.90;;;;;;4996177;28;20380;-78
2022/05/26 01:25:42;;;;;;;4.40;3.45;;;8.90;82.90;;;;;;4995846;28;20058;-80
2022/05/26 01:28:27;;;;;;;;;;;8.90;82.70;;;;;;5007318;28;20069;-78
2022/05/26 01:31:14;;;;;;;7.47;4.60;;;8.90;82.10;;;;;;5013945;28;19906;-79
2022/05/26 01:34:18;;;;;;;5.88;3.67;;;9.00;82.60;;;;;;4997331;28;20411;-77
2022/05/26 01:37:09;;;;;;;6.25;4.15;;;9.00;82.40;;;;;;4991630;28;20527;-79
2022/05/26 01:39:40;;;;;;;5.32;3.78;;;9.10;82.50;;;;;;4985931;28;20041;-78
2022/05/26 01:42:06;;;;;;;6.90;4.22;;;9.20;82.20;;;;;;4998057;28;20120;-78
2022/05/26 01:44:34;;;;;;;6.20;3.97;;;9.30;81.80;;;;;;5015248;28;20384;-81
2022/05/26 01:47:25;;;;;;;7.05;3.85;;;9.30;81.50;;;;;;5014933;28;20091;-80
2022/05/26 01:50:19;;;;;;;8.70;4.15;;;9.30;81.20;;;;;;4974374;28;20054;-79
2022/05/26 01:53:11;;;;;;;6.65;3.67;;;9.40;80.70;;;;;;4996361;28;20380;-79
2022/05/26 01:56:03;;;;;;;8.07;5.07;;;9.40;80.50;;;;;;5000600;28;20045;-80
2022/05/26 01:58:44;;;;;;;8.77;3.78;;;9.40;80.70;;;;;;4996246;28;20395;-77
2022/05/26 02:01:37;;;;;;;11.25;4.60;;;9.30;81.30;;;;;;5018496;28;20033;-80
2022/05/26 02:04:08;;;;;;;5.90;3.60;;;9.30;80.50;;;;;;5012282;28;20121;-78
2022/05/26 02:06:39;;;;;;;8.30;3.92;;;9.30;80.50;;;;;;5014266;28;20084;-79
2022/05/26 02:09:15;;;;;;;5.38;3.40;;;9.30;80.50;;;;;;5015095;28;20403;-78
2022/05/26 02:11:56;;;;;;;5.55;3.63;;;9.20;80.50;;;;;;4995156;28;20027;-77
2022/05/26 02:14:48;;;;;;;7.68;3.90;;;9.20;80.50;;;;;;4977764;28;20092;-78
2022/05/26 02:17:28;;;;;;;6.20;3.88;;;9.30;80.70;;;;;;4984217;28;20043;-78
2022/05/26 02:20:04;;;;;;;4.63;4.13;;;9.30;80.80;;;;;;4994665;28;20488;-79
2022/05/26 02:22:39;;;;;;;8.07;4.20;;;9.30;80.60;;;;;;4994257;28;20045;-78
2022/05/26 02:25:16;;;;;;;8.15;4.30;;;9.30;80.40;;;;;;4994318;28;20022;-79
2022/05/26 02:27:43;;;;;;;6.53;4.78;;;9.30;80.30;;;;;;4994376;28;20122;-78
2022/05/26 02:30:10;;;;;;;;;;;9.30;80.40;;;;;;4995097;28;20146;-78
2022/05/26 02:32:45;;;;;;;8.50;5.35;;;9.20;80.10;;;;;;4994506;28;19914;-78
2022/05/26 02:35:17;;;;;;;10.10;4.35;;;9.10;80.70;;;;;;4993092;28;20026;-79
2022/05/26 02:37:47;;;;;;;7.00;4.95;;;9.10;80.90;;;;;;4994180;28;20018;-79
2022/05/26 02:40:14;;;;;;;7.57;4.97;;;9.10;81.10;;;;;;4994325;28;20042;-79
2022/05/26 02:42:53;;;;;;;11.13;4.85;;;9.10;81.10;;;;;;4994453;28;20431;-78
2022/05/26 02:45:44;;;;;;;6.18;4.28;;;9.20;80.90;;;;;;4994078;28;20034;-79
2022/05/26 02:48:38;;;;;;;8.25;4.47;;;9.40;81.10;;;;;;4963709;28;20046;-80
2022/05/26 02:51:15;;;;;;;5.78;4.07;;;9.60;80.80;;;;;;4968524;28;20035;-80
2022/05/26 02:53:52;;;;;;;12.35;5.38;;;9.70;80.10;;;;;;4994231;28;20023;-79
2022/05/26 02:56:42;;;;;;;10.02;4.57;;;9.90;79.80;;;;;;4993936;28;20026;-78
2022/05/26 02:59:38;;;;;;;6.80;4.35;;;10.10;79.20;;;;;;4994077;28;20022;-78
2022/05/26 03:02:18;;;;;;;6.40;4.28;;;10.30;78.10;;;;;;4994211;28;20030;-78
2022/05/26 03:04:52;;;;;;;9.43;4.35;;;10.30;77.00;;;;;;4993487;28;20027;-78
2022/05/26 03:07:24;;;;;;;5.55;3.88;;;10.40;76.50;;;;;;4997325;28;20019;-78
2022/05/26 03:09:50;;;;;;;8.68;4.22;;;10.40;76.40;;;;;;4997115;28;20058;-79
2022/05/26 03:12:28;;;;;;;7.78;4.22;;;10.50;76.40;;;;;;4995223;28;20049;-79
2022/05/26 03:14:53;;;;;;;8.52;4.65;;;10.50;76.00;;;;;;4999279;28;20021;-77
2022/05/26 03:17:19;;;;;;;8.18;4.57;;;10.50;75.80;;;;;;4994092;28;20030;-78
2022/05/26 03:19:45;;;;;;;10.93;4.93;;;10.50;76.00;;;;;;4997803;28;20388;-79
2022/05/26 03:22:11;;;;;;;9.40;4.22;;;10.50;76.40;;;;;;4993350;28;20103;-79
2022/05/26 03:24:37;;;;;;;6.72;4.00;;;10.50;76.40;;;;;;4993547;28;20023;-79
2022/05/26 03:27:03;;;;;;;8.40;4.50;;;10.60;76.10;;;;;;4996329;28;20375;-78
2022/05/26 03:29:29;;;;;;;6.18;4.47;;;10.60;75.90;;;;;;5011967;28;20034;-80
2022/05/26 03:31:55;;;;;;;7.28;4.53;;;10.70;75.90;;;;;;4993844;28;20038;-78
2022/05/26 03:42:34;;;;;;;6.57;4.25;;;11.00;74.20;;;;;;5028886;28;20114;-79
2022/05/26 03:45:02;;;;;;;9.45;4.72;;;11.10;73.70;;;;;;5024782;28;20022;-78
2022/05/26 03:47:28;;;;;;;8.75;4.82;;;11.20;73.50;;;;;;5012845;28;20028;-78
2022/05/26 03:49:54;;;;;;;7.78;4.78;;;11.10;73.40;;;;;;5013310;28;20030;-77
2022/05/26 03:52:19;;;;;;;5.78;3.88;;;11.10;73.50;;;;;;5013779;28;20248;-79
2022/05/26 03:54:45;;;;;;;8.45;4.05;;;11.20;73.60;;;;;;5014661;28;20439;-78
2022/05/26 03:57:11;;;;;;;9.90;4.22;;;11.10;73.60;;;;;;4994817;28;20018;-79
2022/05/26 03:59:40;;;;;;;8.50;4.97;;;11.20;73.50;;;;;;5012397;28;20029;-78
2022/05/26 04:02:06;;;;;;;7.30;5.05;;;11.30;73.40;;;;;;5012311;28;20026;-79
2022/05/26 04:04:32;;;;;;;7.25;5.25;;;11.40;73.20;;;;;;5012151;28;20026;-78
2022/05/26 04:06:57;;;;;;;9.50;4.65;;;11.60;72.70;;;;;;5012387;28;20059;-78
2022/05/26 04:09:23;;;;;;;10.23;4.93;;;11.80;72.20;;;;;;4994560;28;20027;-80
2022/05/26 04:11:49;;;;;;;8.30;4.78;;;12.00;71.60;;;;;;4992699;28;20023;-80
2022/05/26 04:14:15;;;;;;;8.80;5.00;;;12.10;71.00;;;;;;4992579;28;20093;-80
2022/05/26 04:16:42;;;;;;;8.35;5.28;;;12.20;70.30;;;;;;4994869;28;20571;-79
2022/05/26 04:19:09;;;;;;;8.25;5.38;;;12.30;69.90;;;;;;4999310;28;20387;-78
2022/05/26 04:21:35;;;;;;;10.27;5.60;;;12.30;70.40;;;;;;4999153;28;20026;-80
2022/05/26 04:24:00;;;;;;;9.65;5.47;;;12.30;69.60;;;;;;4998993;28;20048;-78
2022/05/26 04:26:26;;;;;;;9.10;5.80;;;12.30;69.70;;;;;;4999918;28;20074;-80
2022/05/26 04:29:13;;;;;;;8.60;5.80;;;12.20;69.50;;;;;;5018293;28;20459;-79
2022/05/26 04:31:38;;;;;;;11.27;5.32;;;12.20;69.50;;;;;;5018760;28;20389;-78
2022/05/26 04:34:03;;;;;;;12.70;6.45;;;12.20;69.80;;;;;;5018764;28;20125;-78
2022/05/26 04:36:29;;;;;;;10.60;5.97;;;12.20;69.90;;;;;;5018552;28;20022;-78
2022/05/26 04:38:56;;;;;;;11.23;5.55;;;12.30;69.80;;;;;;5001280;28;20484;-79
2022/05/26 04:41:21;;;;;;;7.38;4.70;;;12.30;69.40;;;;;;5018647;28;20050;-77
2022/05/26 04:43:47;;;;;;;10.55;5.35;;;12.40;69.10;;;;;;5018726;28;20029;-79
2022/05/26 04:46:13;;;;;;;10.82;6.88;;;12.60;69.00;;;;;;5000886;28;20026;-78
2022/05/26 04:48:38;;;;;;;9.20;5.72;;;12.70;68.40;;;;;;5010702;28;20400;-76
2022/05/26 04:51:04;;;;;;;9.35;6.65;;;12.80;68.10;;;;;;4999124;28;20026;-77
2022/05/26 04:53:32;;;;;;;16.65;8.23;;;12.70;68.00;;;;;;4999028;28;20450;-79
2022/05/26 04:55:58;;;;;;;10.25;7.05;;;12.80;68.60;;;;;;4999106;28;20065;-79
2022/05/26 04:58:23;;;;;;;10.88;7.18;;;12.80;68.90;;;;;;5001010;28;20053;-79
2022/05/26 05:00:50;;;;;;;15.40;8.07;;;13.00;69.30;;;;;;4999171;28;20018;-79
2022/05/26 05:03:16;;;;;;;14.15;7.35;;;13.50;68.30;;;;;;4999115;28;20112;-79
2022/05/26 05:05:42;;;;;;;13.20;6.97;;;14.60;65.60;;;;;;4998246;28;20033;-80
2022/05/26 05:08:08;;;;;;;13.20;7.05;;;15.70;62.60;;;;;;4980924;28;20030;-79
2022/05/26 05:10:33;;;;;;;12.82;7.10;;;16.70;59.00;;;;;;5000890;28;20049;-79
2022/05/26 05:12:59;;;;;;;12.35;7.45;;;17.60;56.10;;;;;;5006879;28;20029;-79
2022/05/26 05:15:55;;;;;;;12.07;7.47;;;18.30;54.10;;;;;;5014639;28;20483;-80
2022/05/26 05:18:23;;;;;;;13.87;6.50;;;19.30;51.90;;;;;;5019040;28;20045;-83
2022/05/26 05:20:49;;;;;;;;;;;20.00;49.90;;;;;;5019716;28;20255;-78
2022/05/26 05:23:15;;;;;;;13.48;6.90;;;20.60;50.60;;;;;;5019778;28;19912;-82
2022/05/26 05:25:47;;;;;;;16.02;7.22;;;21.40;47.00;;;;;;5001804;28;20073;-80
2022/05/26 05:28:21;;;;;;;13.25;7.45;;;22.20;44.70;;;;;;5017720;28;20121;-83
2022/05/26 05:31:00;;;;;;;11.18;7.28;;;22.90;43.60;;;;;;4994011;28;20041;-81
2022/05/26 05:33:48;;;;;;;28.88;8.40;;;23.50;42.10;;;;;;4995871;28;20419;-80
2022/05/26 05:36:19;;;;;;;10.23;5.47;;;24.50;41.40;;;;;;4978085;28;20033;-81
2022/05/26 05:38:46;;;;;;;13.20;6.10;;;24.70;38.80;;;;;;4991770;28;20073;-85
2022/05/26 05:41:12;;;;;;;15.73;6.75;;;24.30;38.30;;;;;;5009058;28;20060;-84
2022/05/26 05:43:39;;;;;;;10.32;5.68;;;24.20;39.20;;;;;;5007772;28;20030;-85
2022/05/26 05:46:06;;;;;;;13.15;5.50;;;24.70;38.20;;;;;;5016538;28;20029;-85
2022/05/26 05:48:32;;;;;;;12.57;6.28;;;25.30;37.80;;;;;;4999865;28;20042;-85
2022/05/26 05:50:58;;;;;;;12.55;6.32;;;26.20;37.10;;;;;;5022188;28;20029;-84
2022/05/26 05:53:24;;;;;;;14.20;6.35;;;26.70;35.90;;;;;;5024867;28;20026;-85
2022/05/26 05:55:50;;;;;;;16.42;5.70;;;27.20;35.50;;;;;;4998837;28;20030;-85
2022/05/26 05:58:15;;;;;;;15.70;6.78;;;27.50;35.10;;;;;;5016840;28;20085;-85
2022/05/26 06:00:42;;;;;;;11.30;6.53;;;28.20;35.00;;;;;;5005589;28;20022;-86
2022/05/26 06:03:09;;;;;;;12.65;6.70;;;29.10;33.50;;;;;;5030768;28;20074;-86
2022/05/26 06:05:35;;;;;;;9.82;6.85;;;30.10;32.70;;;;;;5015690;28;20361;-83
2022/05/26 06:08:01;;;;;;;10.32;7.28;;;31.00;31.90;;;;;;4996951;28;20034;-84
2022/05/26 06:10:29;;;;;;;10.25;6.32;;;31.70;31.20;;;;;;4996497;28;20023;-85
2022/05/26 06:12:55;;;;;;;12.15;7.28;;;32.10;30.60;;;;;;4995601;28;20490;-87
2022/05/26 06:15:21;;;;;;;15.35;8.38;;;;;;;;;;4995299;28;20113;-84
2022/05/26 06:17:47;;;;;;;17.70;7.00;;;32.40;29.90;;;;;;4977811;28;20023;-83
2022/05/26 06:20:13;;;;;;;20.55;7.65;;;32.40;30.00;;;;;;4997711;28;20267;-85
2022/05/26 06:22:44;;;;;;;18.73;6.50;;;32.90;29.80;;;;;;5000480;28;20019;-85
2022/05/26 06:25:12;;;;;;;15.20;6.00;;;33.10;29.40;;;;;;4978383;28;20042;-84
2022/05/26 06:30:26;;;;;;;10.43;7.05;;;34.80;28.80;;;;;;4995315;28;20061;-87
2022/05/26 06:38:25;;;;;;;24.75;13.60;;;34.40;28.50;;;;;;4995253;28;20089;-84
2022/05/26 06:40:51;;;;;;;12.45;6.45;;;34.40;28.20;;;;;;5009105;28;20499;-85
2022/05/26 06:43:18;;;;;;;13.18;6.75;;;34.40;28.10;;;;;;5014927;28;20036;-84
2022/05/26 06:45:46;;;;;;;11.18;6.60;;;34.50;28.30;;;;;;4997561;28;20022;-83
2022/05/26 06:48:13;;;;;;;18.38;6.78;;;35.10;28.20;;;;;;5014718;28;20034;-84
2022/05/26 06:50:40;;;;;;;18.60;6.63;;;35.60;27.60;;;;;;5016540;28;20022;-82
2022/05/26 06:53:06;;;;;;;11.65;7.30;;;35.70;27.40;;;;;;5010757;28;20432;-83
2022/05/26 06:55:32;;;;;;;;;;;35.70;27.40;;;;;;5031800;28;20032;-84
2022/05/26 06:57:58;;;;;;;16.80;9.30;;;36.10;28.30;;;;;;5018160;28;19913;-85
2022/05/26 07:00:24;;;;;;;26.10;16.13;;;35.20;27.60;;;;;;4998006;28;20030;-84
2022/05/26 07:02:52;;;;;;;16.27;7.65;;;35.60;27.40;;;;;;5015078;28;20716;-82
2022/05/26 07:05:18;;;;;;;9.07;6.25;;;36.10;27.30;;;;;;5001793;28;20429;-84
2022/05/26 07:07:44;;;;;;;12.02;6.28;;;36.30;26.90;;;;;;4996220;28;20056;-83
2022/05/26 07:10:13;;;;;;;12.02;5.80;;;35.80;27.10;;;;;;4996355;28;20081;-84
2022/05/26 07:12:40;;;;;;;9.52;5.25;;;36.20;27.20;;;;;;4994673;28;20026;-85
2022/05/26 07:15:08;;;;;;;13.73;6.35;;;36.50;26.60;;;;;;4976924;28;20037;-85
2022/05/26 07:17:34;;;;;;;13.07;6.35;;;36.10;26.60;;;;;;4995564;28;20096;-84
2022/05/26 07:20:00;;;;;;;17.90;8.17;;;34.80;27.00;;;;;;4994271;28;20117;-82
2022/05/26 07:22:25;;;;;;;13.57;6.37;;;33.40;28.00;;;;;;4996281;28;20022;-84
2022/05/26 07:24:51;;;;;;;12.20;6.40;;;33.40;28.50;;;;;;4997437;28;20275;-83
2022/05/26 07:27:18;;;;;;;8.47;7.00;;;33.90;28.20;;;;;;4998932;28;20093;-84
2022/05/26 07:29:43;;;;;;;9.30;5.72;;;34.00;28.20;;;;;;4997713;28;20447;-84
2022/05/26 07:32:09;;;;;;;11.70;5.90;;;34.10;27.50;;;;;;4999550;28;20057;-81
2022/05/26 07:34:35;;;;;;;10.47;4.83;;;34.50;27.60;;;;;;4997525;28;20030;-84
2022/05/26 07:42:36;;;;;;;15.35;5.35;;;35.30;26.80;;;;;;5014098;28;20127;-83
2022/05/26 07:45:04;;;;;;;8.98;5.00;;;36.30;26.70;;;;;;5014433;28;20105;-83
2022/05/26 07:47:30;;;;;;;10.18;5.43;;;36.50;26.60;;;;;;5014855;28;20076;-84
2022/05/26 07:49:59;;;;;;;10.00;5.33;;;37.40;26.30;;;;;;5014049;28;20033;-85
2022/05/26 07:52:25;;;;;;;12.43;5.75;;;37.10;26.10;;;;;;4994724;28;20277;-84
2022/05/26 07:54:51;;;;;;;11.83;5.43;;;36.90;26.30;;;;;;5013162;28;20546;-85
2022/05/26 07:57:25;;;;;;;14.15;5.43;;;37.00;26.50;;;;;;5013150;28;20341;-84
2022/05/26 07:59:52;;;;;;;13.27;6.07;;;37.30;26.50;;;;;;4995296;28;20092;-84
2022/05/26 08:02:19;;;;;;;13.45;6.60;;;37.20;26.30;;;;;;5013779;28;20099;-85
2022/05/26 08:04:45;;;;;;;20.08;6.63;;;;;;;;;;4996393;28;20112;-84
2022/05/26 08:07:13;;;;;;;18.63;7.45;;;39.20;25.50;;;;;;5020757;28;20036;-84
2022/05/26 08:09:38;;;;;;;;;;;39.80;25.20;;;;;;5005980;28;20022;-82
2022/05/26 08:12:06;;;;;;;7.55;3.95;;;39.50;26.10;;;;;;5022932;28;19905;-84
2022/05/26 08:14:32;;;;;;;7.13;4.28;;;38.90;24.70;;;;;;5029441;28;20036;-83
2022/05/26 08:16:58;;;;;;;8.68;4.13;;;36.60;24.80;;;;;;5018374;28;20048;-83
2022/05/26 08:19:24;;;;;;;8.38;3.80;;;34.60;25.70;;;;;;5013783;28;20512;-84
2022/05/26 08:21:50;;;;;;;9.80;3.87;;;;;;;;;;5014108;28;20109;-83
2022/05/26 08:24:18;;;;;;;7.80;3.72;;;33.70;26.20;;;;;;5014551;28;20056;-83
2022/05/26 08:26:44;;;;;;;9.23;4.07;;;33.80;26.40;;;;;;5016302;28;20113;-86
2022/05/26 08:29:10;;;;;;;8.17;3.97;;;32.90;27.00;;;;;;5014628;28;20087;-85
2022/05/26 08:31:36;;;;;;;8.47;4.73;;;33.70;27.10;;;;;;5013112;28;20105;-84
2022/05/26 08:34:01;;;;;;;9.37;3.63;;;35.40;26.50;;;;;;5012941;28;20042;-84
2022/05/26 08:36:28;;;;;;;8.88;4.18;;;36.80;25.80;;;;;;5013023;28;20053;-84
2022/05/26 08:38:55;;;;;;;12.98;4.00;;;37.80;25.30;;;;;;5012897;28;20045;-85
2022/05/26 08:41:32;;;;;;;3.58;2.85;;;39.00;24.80;;;;;;5013332;28;20026;-84
2022/05/26 08:44:01;;;;;;;3.97;2.70;;;39.10;24.10;;;;;;5013992;28;20053;-84
2022/05/26 08:47:01;;;;;;;8.38;2.70;;;37.40;24.20;;;;;;5013244;28;20022;-84
2022/05/26 08:49:56;;;;;;;5.53;2.83;;;37.30;25.00;;;;;;5011856;28;20038;-85
2022/05/26 08:52:57;;;;;;;6.32;2.58;;;38.10;24.60;;;;;;4995316;28;20480;-85
2022/05/26 08:55:55;;;;;;;5.85;2.92;;;37.90;24.40;;;;;;5012713;28;20073;-85
2022/05/26 08:58:25;;;;;;;5.82;2.40;;;36.40;24.60;;;;;;5011967;28;20057;-83
2022/05/26 09:00:53;;;;;;;10.38;3.20;;;35.40;25.40;;;;;;5014231;28;20033;-85
2022/05/26 09:03:28;;;;;;;4.90;2.72;;;35.30;26.20;;;;;;4998906;28;20120;-83
2022/05/26 09:06:07;;;;;;;9.52;2.85;;;36.20;25.90;;;;;;5018689;28;20018;-83
2022/05/26 09:14:25;;;;;;;5.50;3.25;;;38.50;24.40;;;;;;5017354;28;20428;-82
2022/05/26 09:16:55;;;;;;;4.72;2.70;;;;;;;;;;4999311;28;20034;-84
2022/05/26 09:19:22;;;;;;;4.65;2.78;;;39.10;24.00;;;;;;5018574;28;20092;-85
2022/05/26 09:21:50;;;;;;;7.28;3.15;;;39.50;24.10;;;;;;5028568;28;20121;-84
2022/05/26 09:24:25;;;;;;;5.13;2.53;;;39.60;24.00;;;;;;5018996;28;20103;-84
2022/05/26 09:26:56;;;;;;;5.43;2.90;;;40.10;24.20;;;;;;5016024;28;20440;-83
2022/05/26 09:29:40;;;;;;;4.45;2.90;;;40.10;23.60;;;;;;5016632;28;20022;-86
2022/05/26 09:32:13;;;;;;;3.90;2.28;;;38.40;23.90;;;;;;5016037;28;20034;-82
2022/05/26 09:34:39;;;;;;;16.42;4.03;;;36.70;24.40;;;;;;4998519;28;20050;-86
2022/05/26 09:37:07;;;;;;;5.50;2.60;;;36.50;24.60;;;;;;5016475;28;20937;-84
2022/05/26 09:39:42;;;;;;;36.95;5.07;;;36.50;24.80;;;;;;5016531;28;20514;-83
2022/05/26 09:42:37;;;;;;;5.10;2.50;;;37.50;24.60;;;;;;5016335;28;20361;-83
2022/05/26 09:45:13;;;;;;;7.05;2.47;;;38.40;24.20;;;;;;4978465;28;20045;-84
2022/05/26 09:47:53;;;;;;;7.70;2.50;;;39.30;24.00;;;;;;4978257;28;20022;-82
2022/05/26 09:50:35;;;;;;;5.85;2.67;;;38.80;23.90;;;;;;4977896;28;20151;-84
2022/05/26 09:53:04;;;;;;;7.80;3.58;;;37.40;23.90;;;;;;4993942;28;20074;-84
2022/05/26 09:55:32;;;;;;;3.80;2.92;;;35.00;25.10;;;;;;4993631;28;20073;-82
2022/05/26 09:58:11;;;;;;;4.88;2.47;;;34.20;25.80;;;;;;4993389;28;20092;-85
2022/05/26 10:00:46;;;;;;;4.40;2.97;;;34.80;25.90;;;;;;4993640;28;20480;-83
2022/05/26 10:03:22;;;;;;;7.25;2.50;;;34.50;25.60;;;;;;4993982;28;20034;-84
2022/05/26 10:06:12;;;;;;;6.40;3.00;;;32.70;26.30;;;;;;4993243;28;20109;-84
2022/05/26 10:08:59;;;;;;;16.35;3.60;;;31.10;27.30;;;;;;4993317;28;20038;-83
2022/05/26 10:11:40;;;;;;;7.68;3.30;;;30.60;28.20;;;;;;4993498;28;20053;-82
2022/05/26 10:14:15;;;;;;;8.93;2.75;;;31.10;27.60;;;;;;4993496;28;20102;-84
2022/05/26 10:16:52;;;;;;;4.45;2.90;;;31.80;27.20;;;;;;4993356;28;20030;-85
2022/05/26 10:19:31;;;;;;;7.45;3.08;;;33.00;26.40;;;;;;4994377;28;20069;-85
2022/05/26 10:22:24;;;;;;;9.13;2.80;;;33.20;26.10;;;;;;4986235;28;20459;-84
2022/05/26 10:25:25;;;;;;;32.72;3.75;;;33.20;25.90;;;;;;5019110;28;20473;-84
2022/05/26 10:28:28;;;;;;;8.65;5.22;;;32.40;25.70;;;;;;4999514;28;20030;-83
2022/05/26 10:31:05;;;;;;;6.32;3.22;;;30.90;26.50;;;;;;5016600;28;20030;-83
2022/05/26 10:33:44;;;;;;;9.27;3.05;;;29.80;27.10;;;;;;5018881;28;20053;-82
2022/05/26 10:36:36;;;;;;;4.85;3.30;;;28.90;27.40;;;;;;5030301;28;20088;-82
2022/05/26 10:39:39;;;;;;;9.38;3.50;;;28.40;28.10;;;;;;5015497;28;20034;-83
2022/05/26 10:42:16;;;;;;;7.38;3.60;;;27.70;28.20;;;;;;4995966;28;20054;-82
2022/05/26 10:44:55;;;;;;;5.95;2.42;;;27.10;28.70;;;;;;4984094;28;20026;-84
2022/05/26 10:47:27;;;;;;;3.33;2.67;;;26.50;28.80;;;;;;5002052;28;20023;-83
2022/05/26 10:50:16;;;;;;;4.85;3.33;;;25.80;29.50;;;;;;4999503;28;20034;-83
2022/05/26 10:52:48;;;;;;;6.95;3.80;;;25.60;30.00;;;;;;4995552;28;20156;-83
2022/05/26 10:55:20;;;;;;;4.53;3.40;;;25.40;30.00;;;;;;4995335;28;20065;-84
2022/05/26 10:58:02;;;;;;;5.68;3.80;;;25.30;29.90;;;;;;4996951;28;20163;-82
2022/05/26 11:00:30;;;;;;;6.55;4.97;;;25.20;30.10;;;;;;5006509;28;20053;-83
2022/05/26 11:03:10;;;;;;;6.07;3.00;;;25.20;30.50;;;;;;5014946;28;20361;-84
2022/05/26 11:05:58;;;;;;;6.22;3.40;;;25.10;30.40;;;;;;5016387;28;20037;-84
2022/05/26 11:08:42;;;;;;;6.38;3.22;;;25.00;30.80;;;;;;5015515;28;20018;-86
2022/05/26 11:11:23;;;;;;;6.35;3.40;;;24.60;31.20;;;;;;5014559;28;20064;-85
2022/05/26 11:13:59;;;;;;;7.32;3.42;;;24.20;31.80;;;;;;5015269;28;20384;-84
2022/05/26 11:19:39;;;;;;;9.60;3.80;;;24.30;32.30;;;;;;5015550;28;20138;-84
2022/05/26 11:22:05;;;;;;;7.53;3.38;;;24.50;32.00;;;;;;5017937;28;20028;-86
2022/05/26 11:24:33;;;;;;;5.07;3.60;;;24.50;32.30;;;;;;5021509;28;20073;-81
2022/05/26 11:27:10;;;;;;;7.53;3.35;;;24.30;33.10;;;;;;5001627;28;20415;-82
2022/05/26 11:29:47;;;;;;;5.50;3.53;;;24.20;32.50;;;;;;5014379;28;20033;-83
2022/05/26 11:38:27;;;;;;;8.75;3.05;;;23.90;33.10;;;;;;5013429;28;20403;-83
2022/05/26 11:40:58;;;;;;;7.13;2.88;;;23.40;33.50;;;;;;4965803;28;20554;-85
2022/05/26 11:43:59;;;;;;;9.60;2.72;;;23.00;34.20;;;;;;4995224;28;20141;-84
2022/05/26 11:46:43;;;;;;;8.73;3.22;;;22.90;34.10;;;;;;4978448;28;20118;-84
2022/05/26 11:49:43;;;;;;;5.72;3.33;;;22.30;35.00;;;;;;5004810;28;20049;-83
2022/05/26 11:52:24;;;;;;;5.60;3.88;;;21.70;35.90;;;;;;4994501;28;20026;-83
2022/05/26 11:55:02;;;;;;;6.40;3.67;;;21.60;36.40;;;;;;4993856;28;20026;-85
2022/05/26 11:57:38;;;;;;;5.70;3.28;;;21.60;36.60;;;;;;4976546;28;20050;-84
2022/05/26 12:00:40;;;;;;;6.00;3.58;;;21.70;36.70;;;;;;4993233;28;20030;-83
2022/05/26 12:03:22;;;;;;;6.20;3.25;;;21.90;36.20;;;;;;4989486;28;20085;-84
2022/05/26 12:06:10;;;;;;;5.22;3.70;;;22.00;35.70;;;;;;4993534;28;20026;-84
2022/05/26 12:08:39;;;;;;;5.15;3.47;;;22.00;36.00;;;;;;4993228;28;20109;-84
2022/05/26 12:11:09;;;;;;;7.72;3.88;;;22.00;36.10;;;;;;4993677;28;20026;-83
2022/05/26 12:13:38;;;;;;;5.80;2.90;;;22.00;35.90;;;;;;4993388;28;20025;-85
2022/05/26 12:16:17;;;;;;;8.98;3.00;;;21.90;36.00;;;;;;4976420;28;20448;-84
2022/05/26 12:18:59;;;;;;;4.93;2.78;;;21.80;36.60;;;;;;4993507;28;20141;-85
2022/05/26 12:21:27;;;;;;;4.60;3.25;;;22.10;36.20;;;;;;4993719;28;20061;-85
2022/05/26 12:23:54;;;;;;;7.63;3.67;;;21.90;36.30;;;;;;4976448;28;20058;-84
2022/05/26 12:26:44;;;;;;;8.82;3.22;;;21.90;36.60;;;;;;4977652;28;20026;-85
2022/05/26 12:29:47;;;;;;;7.45;4.03;;;21.90;36.40;;;;;;4993131;28;20026;-82
2022/05/26 12:32:36;;;;;;;9.32;4.28;;;22.20;36.80;;;;;;4993919;28;20030;-84
2022/05/26 12:35:34;;;;;;;8.15;3.17;;;22.50;36.30;;;;;;4980756;28;20165;-81
2022/05/26 12:38:31;;;;;;;8.18;3.95;;;22.70;36.00;;;;;;5000799;28;20035;-87
2022/05/26 12:41:18;;;;;;;;;;;22.60;36.10;;;;;;5015561;28;20048;-84
2022/05/26 12:44:26;;;;;;;20.35;12.70;;;22.40;35.90;;;;;;5000722;28;19913;-86
2022/05/26 12:47:48;;;;;;;15.27;6.78;;;22.20;36.90;;;;;;4976132;28;20370;-82
2022/05/26 12:50:18;;;;;;;19.25;10.68;;;22.40;36.80;;;;;;4919178;29;20052;-85
2022/05/26 12:52:59;;;;;;;10.40;5.43;;;22.50;36.80;;;;;;4904164;29;20040;-83
2022/05/26 12:55:29;;;;;;;9.48;4.50;;;22.60;36.40;;;;;;4952976;28;20126;-83
2022/05/26 12:58:22;;;;;;;14.15;6.78;;;22.40;36.60;;;;;;4959620;28;20512;-85
2022/05/26 13:00:48;;;;;;;8.82;4.45;;;22.30;36.70;;;;;;4982421;28;20444;-83
2022/05/26 13:03:13;;;;;;;12.68;6.20;;;22.30;37.20;;;;;;4991348;28;20027;-86
2022/05/26 13:06:07;;;;;;;8.02;4.75;;;22.20;37.20;;;;;;4959672;28;20463;-83
2022/05/26 13:08:50;;;;;;;11.82;5.75;;;22.20;37.00;;;;;;4919883;28;20047;-83
2022/05/26 13:11:19;;;;;;;15.27;7.10;;;21.90;37.40;;;;;;4978773;28;20074;-85
2022/05/26 13:13:51;;;;;;;15.05;7.28;;;21.80;38.00;;;;;;4978537;28;20030;-83
2022/05/26 13:16:35;;;;;;;12.32;5.97;;;21.70;37.80;;;;;;4959580;28;20089;-84
2022/05/26 13:19:16;;;;;;;10.18;5.70;;;21.60;37.70;;;;;;4979628;28;20487;-83
2022/05/26 13:21:45;;;;;;;9.45;5.15;;;21.60;38.00;;;;;;4997238;28;20077;-85
2022/05/26 13:24:23;;;;;;;13.32;5.07;;;21.60;38.30;;;;;;4997773;28;20105;-84
2022/05/26 13:27:02;;;;;;;14.52;7.05;;;21.40;38.50;;;;;;4996883;28;20025;-84
2022/05/26 13:29:29;;;;;;;13.93;6.05;;;21.30;38.80;;;;;;4979918;28;20037;-83
2022/05/26 13:34:49;;;;;;;10.77;5.43;;;21.30;38.90;;;;;;4997097;28;20065;-86
2022/05/26 13:37:21;;;;;;;15.30;5.65;;;21.20;38.90;;;;;;4981662;28;20026;-84
2022/05/26 13:40:02;;;;;;;16.77;5.40;;;21.10;39.20;;;;;;5004610;28;20137;-82
2022/05/26 13:42:46;;;;;;;12.77;4.72;;;21.00;39.50;;;;;;5018318;28;20022;-83
2022/05/26 13:45:26;;;;;;;13.25;6.15;;;20.90;39.60;;;;;;5019168;28;20033;-83
2022/05/26 13:48:30;;;;;;;15.13;6.90;;;20.70;40.10;;;;;;5016225;28;20072;-82
2022/05/26 13:51:13;;;;;;;20.13;7.68;;;20.70;40.30;;;;;;5014878;28;20518;-84
2022/05/26 13:53:43;;;;;;;10.70;5.20;;;20.60;40.60;;;;;;4998441;28;20126;-82
2022/05/26 13:56:10;;;;;;;10.05;4.43;;;20.70;40.30;;;;;;5016097;28;20026;-84
2022/05/26 13:58:38;;;;;;;7.07;4.05;;;20.70;40.00;;;;;;5017842;28;20108;-82
2022/05/26 14:01:07;;;;;;;6.20;2.88;;;20.70;39.50;;;;;;5016120;28;20059;-83
2022/05/26 14:03:37;;;;;;;5.80;2.75;;;20.60;39.00;;;;;;5015556;28;20476;-83